createdAt,value
2022-10-07T00:00:02.893Z,11.90
2022-10-07T00:01:02.930Z,11.98
2022-10-07T00:02:02.993Z,11.94
2022-10-07T00:03:02.833Z,11.94
2022-10-07T00:04:02.845Z,11.99
2022-10-07T00:05:02.823Z,11.88
2022-10-07T00:06:02.808Z,11.94
2022-10-07T00:07:02.805Z,11.85
2022-10-07T00:08:02.777Z,11.79
2022-10-07T00:09:02.777Z,11.76
2022-10-07T00:10:07.807Z,11.72
2022-10-07T00:11:02.821Z,11.80
2022-10-07T00:12:02.733Z,11.76
2022-10-07T00:13:02.740Z,11.70
2022-10-07T00:14:02.714Z,11.69
2022-10-07T00:15:02.711Z,11.65
2022-10-07T00:16:02.690Z,11.64
2022-10-07T00:17:02.791Z,11.61
2022-10-07T00:18:02.673Z,11.62
2022-10-07T00:19:02.650Z,11.58
2022-10-07T00:20:02.671Z,11.61
2022-10-07T00:21:07.659Z,11.54
2022-10-07T00:22:02.622Z,11.64
2022-10-07T00:23:02.612Z,11.61
2022-10-07T00:24:02.595Z,11.62
2022-10-07T00:25:02.642Z,11.57
2022-10-07T00:26:02.576Z,11.70
2022-10-07T00:27:02.561Z,11.65
2022-10-07T00:28:02.596Z,11.57
2022-10-07T00:29:02.556Z,11.70
2022-10-07T00:30:02.532Z,11.67
2022-10-07T00:31:02.649Z,11.67
2022-10-07T00:32:07.536Z,11.51
2022-10-07T00:33:02.546Z,11.55
2022-10-07T00:34:02.480Z,11.49
2022-10-07T00:35:02.471Z,11.47
2022-10-07T00:36:02.442Z,11.54
2022-10-07T00:37:02.429Z,11.43
2022-10-07T00:38:02.395Z,11.36
2022-10-07T00:39:02.405Z,11.43
2022-10-07T00:40:02.369Z,11.33
2022-10-07T00:41:02.369Z,11.37
2022-10-07T00:42:02.351Z,11.33
2022-10-07T00:43:07.357Z,11.40
2022-10-07T00:44:02.324Z,11.40
2022-10-07T00:45:02.336Z,11.49
2022-10-07T00:46:02.360Z,11.36
2022-10-07T00:47:02.302Z,11.36
2022-10-07T00:48:02.284Z,11.44
2022-10-07T00:49:02.268Z,11.44
2022-10-07T00:50:02.256Z,11.43
2022-10-07T00:51:02.255Z,11.39
2022-10-07T00:52:02.232Z,11.37
2022-10-07T00:53:02.225Z,11.44
2022-10-07T00:54:07.231Z,11.40
2022-10-07T00:55:02.215Z,11.43
2022-10-07T00:56:02.198Z,11.33
2022-10-07T00:57:02.176Z,11.32
2022-10-07T00:58:02.169Z,11.28
2022-10-07T00:59:02.155Z,11.21
2022-10-07T01:00:02.152Z,11.21
2022-10-07T01:01:02.252Z,11.28
2022-10-07T01:02:02.220Z,11.21
2022-10-07T01:03:02.109Z,11.22
2022-10-07T01:04:02.097Z,11.35
2022-10-07T01:05:07.108Z,11.32
2022-10-07T01:06:02.091Z,11.29
2022-10-07T01:07:02.065Z,11.24
2022-10-07T01:08:02.053Z,11.28
2022-10-07T01:09:02.041Z,11.29
2022-10-07T01:10:02.028Z,11.32
2022-10-07T01:11:02.034Z,11.28
2022-10-07T01:12:02.006Z,11.29
2022-10-07T01:13:02.006Z,11.33
2022-10-07T01:14:01.982Z,11.24
2022-10-07T01:15:01.985Z,11.27
2022-10-07T01:16:07.015Z,11.27
2022-10-07T01:17:02.052Z,11.35
2022-10-07T01:18:01.940Z,11.29
2022-10-07T01:19:01.929Z,11.36
2022-10-07T01:20:01.958Z,11.33
2022-10-07T01:21:01.923Z,11.25
2022-10-07T01:22:01.891Z,11.25
2022-10-07T01:23:01.886Z,11.32
2022-10-07T01:24:01.871Z,11.32
2022-10-07T01:25:01.859Z,11.32
2022-10-07T01:26:01.870Z,11.32
2022-10-07T01:27:06.865Z,11.32
2022-10-07T01:28:01.913Z,11.28
2022-10-07T01:29:01.817Z,11.32
2022-10-07T01:30:01.807Z,11.33
2022-10-07T01:31:01.871Z,11.36
2022-10-07T01:32:01.801Z,11.35
2022-10-07T01:33:01.778Z,11.40
2022-10-07T01:34:01.759Z,11.43
2022-10-07T01:35:01.747Z,11.42
2022-10-07T01:36:01.737Z,11.39
2022-10-07T01:37:01.734Z,11.46
2022-10-07T01:38:06.734Z,11.44
2022-10-07T01:39:01.703Z,11.52
2022-10-07T01:40:01.693Z,11.52
2022-10-07T01:41:01.678Z,11.55
2022-10-07T01:42:01.677Z,11.57
2022-10-07T01:43:01.666Z,11.58
2022-10-07T01:44:01.647Z,11.55
2022-10-07T01:45:01.642Z,11.55
2022-10-07T01:46:01.666Z,11.61
2022-10-07T01:47:01.623Z,11.65
2022-10-07T01:48:01.743Z,11.64
2022-10-07T01:49:06.612Z,11.64
2022-10-07T01:50:01.593Z,11.60
2022-10-07T01:51:01.565Z,11.54
2022-10-07T01:52:01.562Z,11.62
2022-10-07T01:53:01.543Z,11.62
2022-10-07T01:54:01.530Z,11.55
2022-10-07T01:55:01.529Z,11.55
2022-10-07T01:56:01.509Z,11.61
2022-10-07T01:57:01.511Z,11.60
2022-10-07T01:58:01.487Z,11.57
2022-10-07T01:59:01.485Z,11.58
2022-10-07T02:00:06.484Z,11.60
2022-10-07T02:01:01.606Z,11.44
2022-10-07T02:02:01.449Z,11.43
2022-10-07T02:03:01.430Z,11.44
2022-10-07T02:04:01.480Z,11.40
2022-10-07T02:05:01.415Z,11.39
2022-10-07T02:06:01.396Z,11.47
2022-10-07T02:07:01.393Z,11.43
2022-10-07T02:08:01.375Z,11.42
2022-10-07T02:09:01.361Z,11.47
2022-10-07T02:10:01.364Z,11.43
2022-10-07T02:11:06.373Z,11.51
2022-10-07T02:12:01.347Z,11.47
2022-10-07T02:13:01.315Z,11.47
2022-10-07T02:14:01.313Z,11.51
2022-10-07T02:15:01.309Z,11.51
2022-10-07T02:16:01.342Z,11.39
2022-10-07T02:17:01.289Z,11.40
2022-10-07T02:18:01.277Z,11.42
2022-10-07T02:19:01.268Z,11.43
2022-10-07T02:20:01.266Z,11.33
2022-10-07T02:21:01.239Z,11.40
2022-10-07T02:22:06.269Z,11.32
2022-10-07T02:23:01.207Z,11.36
2022-10-07T02:24:01.192Z,11.32
2022-10-07T02:25:01.179Z,11.32
2022-10-07T02:26:01.169Z,11.35
2022-10-07T02:27:01.202Z,11.28
2022-10-07T02:28:01.218Z,11.32
2022-10-07T02:29:01.133Z,11.28
2022-10-07T02:30:01.139Z,11.28
2022-10-07T02:31:01.186Z,11.28
2022-10-07T02:32:01.100Z,11.28
2022-10-07T02:33:06.150Z,11.28
2022-10-07T02:34:01.081Z,11.35
2022-10-07T02:35:01.069Z,11.29
2022-10-07T02:36:01.079Z,11.24
2022-10-07T02:37:01.058Z,11.19
2022-10-07T02:38:01.047Z,11.19
2022-10-07T02:39:01.026Z,11.18
2022-10-07T02:40:01.011Z,11.22
2022-10-07T02:41:01.008Z,11.11
2022-10-07T02:42:00.987Z,11.24
2022-10-07T02:43:00.989Z,11.19
2022-10-07T02:44:05.987Z,11.10
2022-10-07T02:45:00.970Z,11.14
2022-10-07T02:46:01.036Z,11.10
2022-10-07T02:47:01.148Z,11.09
2022-10-07T02:48:00.931Z,11.06
2022-10-07T02:49:00.925Z,11.03
2022-10-07T02:50:00.933Z,11.11
2022-10-07T02:51:00.883Z,11.04
2022-10-07T02:52:00.897Z,11.04
2022-10-07T02:53:00.876Z,10.96
2022-10-07T02:54:00.851Z,10.97
2022-10-07T02:55:05.860Z,10.96
2022-10-07T02:56:00.830Z,10.96
2022-10-07T02:57:00.817Z,10.96
2022-10-07T02:58:00.819Z,11.03
2022-10-07T02:59:00.795Z,11.00
2022-10-07T03:00:00.783Z,11.02
2022-10-07T03:01:00.774Z,10.96
2022-10-07T03:02:00.828Z,10.94
2022-10-07T03:03:00.765Z,10.97
2022-10-07T03:04:00.849Z,10.97
2022-10-07T03:05:00.726Z,10.92
2022-10-07T03:06:05.743Z,10.94
2022-10-07T03:07:00.703Z,11.00
2022-10-07T03:08:00.725Z,10.89
2022-10-07T03:09:00.687Z,10.92
2022-10-07T03:10:00.676Z,10.91
2022-10-07T03:11:00.663Z,10.92
2022-10-07T03:12:00.654Z,10.84
2022-10-07T03:13:00.651Z,10.85
2022-10-07T03:14:00.630Z,10.86
2022-10-07T03:15:00.614Z,10.84
2022-10-07T03:16:00.671Z,10.86
2022-10-07T03:17:05.612Z,10.94
2022-10-07T03:18:00.596Z,10.84
2022-10-07T03:19:00.568Z,10.74
2022-10-07T03:20:00.558Z,10.66
2022-10-07T03:21:00.599Z,10.66
2022-10-07T03:22:00.536Z,10.66
2022-10-07T03:23:00.537Z,10.67
2022-10-07T03:24:00.535Z,10.64
2022-10-07T03:25:00.502Z,10.64
2022-10-07T03:26:00.494Z,10.66
2022-10-07T03:27:00.479Z,10.67
2022-10-07T03:28:05.527Z,10.70
2022-10-07T03:29:00.457Z,10.71
2022-10-07T03:30:00.485Z,10.70
2022-10-07T03:31:00.483Z,10.73
2022-10-07T03:32:00.428Z,10.61
2022-10-07T03:33:00.447Z,10.63
2022-10-07T03:34:00.421Z,10.67
2022-10-07T03:35:00.390Z,10.71
2022-10-07T03:36:00.381Z,10.73
2022-10-07T03:37:00.367Z,10.71
2022-10-07T03:38:00.371Z,10.67
2022-10-07T03:39:05.379Z,10.64
2022-10-07T03:40:00.340Z,10.61
2022-10-07T03:41:00.319Z,10.67
2022-10-07T03:42:00.320Z,10.66
2022-10-07T03:43:00.320Z,10.68
2022-10-07T03:44:00.300Z,10.60
2022-10-07T03:45:00.285Z,10.60
2022-10-07T03:46:00.302Z,10.52
2022-10-07T03:47:00.265Z,10.52
2022-10-07T03:48:00.252Z,10.48
2022-10-07T03:49:00.229Z,10.60
2022-10-07T03:50:05.271Z,10.60
2022-10-07T03:51:00.215Z,10.63
2022-10-07T03:52:00.248Z,10.63
2022-10-07T03:53:00.196Z,10.52
2022-10-07T03:54:00.171Z,10.52
2022-10-07T03:55:00.181Z,10.51
2022-10-07T03:56:00.156Z,10.56
2022-10-07T03:57:00.133Z,10.42
2022-10-07T03:58:00.140Z,10.38
2022-10-07T03:59:00.111Z,10.40
2022-10-07T04:00:00.120Z,10.40
2022-10-07T04:01:05.110Z,10.40
2022-10-07T04:02:00.220Z,10.40
2022-10-07T04:03:00.167Z,10.36
2022-10-07T04:04:00.055Z,10.33
2022-10-07T04:05:00.044Z,10.40
2022-10-07T04:06:00.042Z,10.33
2022-10-07T04:07:00.026Z,10.38
2022-10-07T04:08:00.021Z,10.38
2022-10-07T04:08:59.998Z,10.40
2022-10-07T04:09:59.993Z,10.42
2022-10-07T04:10:59.995Z,10.33
2022-10-07T04:12:04.993Z,10.20
2022-10-07T04:12:59.959Z,10.22
2022-10-07T04:13:59.961Z,10.20
2022-10-07T04:14:59.928Z,10.18
2022-10-07T04:15:59.970Z,10.18
2022-10-07T04:16:59.911Z,10.17
2022-10-07T04:17:59.905Z,10.25
2022-10-07T04:18:59.898Z,10.26
2022-10-07T04:19:59.895Z,10.33
2022-10-07T04:20:59.861Z,10.25
2022-10-07T04:21:59.851Z,10.20
2022-10-07T04:23:04.872Z,10.20
2022-10-07T04:23:59.831Z,10.27
2022-10-07T04:24:59.816Z,10.30
2022-10-07T04:25:59.804Z,10.23
2022-10-07T04:26:59.815Z,10.23
2022-10-07T04:28:00.404Z,10.18
2022-10-07T04:28:59.772Z,10.14
2022-10-07T04:29:59.758Z,10.25
2022-10-07T04:30:59.774Z,10.18
2022-10-07T04:31:59.752Z,10.14
2022-10-07T04:32:59.724Z,10.23
2022-10-07T04:34:04.752Z,10.22
2022-10-07T04:34:59.702Z,10.20
2022-10-07T04:35:59.690Z,10.25
2022-10-07T04:36:59.677Z,10.18
2022-10-07T04:38:00.040Z,10.26
2022-10-07T04:38:59.667Z,10.22
2022-10-07T04:40:01.163Z,10.29
2022-10-07T04:40:59.631Z,10.27
2022-10-07T04:41:59.625Z,10.26
2022-10-07T04:42:59.627Z,10.23
2022-10-07T04:43:59.613Z,10.20
2022-10-07T04:45:04.609Z,10.30
2022-10-07T04:45:59.585Z,10.27
2022-10-07T04:46:59.664Z,10.32
2022-10-07T04:47:59.553Z,10.23
2022-10-07T04:48:59.567Z,10.26
2022-10-07T04:49:59.536Z,10.33
2022-10-07T04:50:59.516Z,10.23
2022-10-07T04:51:59.508Z,10.25
2022-10-07T04:52:59.498Z,10.18
2022-10-07T04:53:59.511Z,10.27
2022-10-07T04:54:59.473Z,10.18
2022-10-07T04:56:04.486Z,10.33
2022-10-07T04:56:59.450Z,10.22
2022-10-07T04:57:59.438Z,10.20
2022-10-07T04:58:59.453Z,10.14
2022-10-07T04:59:59.417Z,10.18
2022-10-07T05:00:59.463Z,10.18
2022-10-07T05:01:59.430Z,10.22
2022-10-07T05:02:59.395Z,10.11
2022-10-07T05:03:59.397Z,10.09
2022-10-07T05:04:59.359Z,10.14
2022-10-07T05:06:03.305Z,10.22
2022-10-07T05:07:05.353Z,10.22
2022-10-07T05:07:59.355Z,10.15
2022-10-07T05:08:59.312Z,10.18
2022-10-07T05:09:59.298Z,10.22
2022-10-07T05:10:59.289Z,10.14
2022-10-07T05:11:59.280Z,10.15
2022-10-07T05:12:59.266Z,10.17
2022-10-07T05:13:59.265Z,10.01
2022-10-07T05:14:59.269Z,10.09
2022-10-07T05:15:59.281Z,10.01
2022-10-07T05:16:59.231Z,9.94
2022-10-07T05:18:04.227Z,9.94
2022-10-07T05:18:59.226Z,10.07
2022-10-07T05:19:59.227Z,9.94
2022-10-07T05:20:59.196Z,9.94
2022-10-07T05:21:59.193Z,10.01
2022-10-07T05:22:59.191Z,10.07
2022-10-07T05:23:59.192Z,9.93
2022-10-07T05:24:59.128Z,9.96
2022-10-07T05:25:59.120Z,9.99
2022-10-07T05:26:59.125Z,10.01
2022-10-07T05:27:59.169Z,10.07
2022-10-07T05:29:04.144Z,9.99
2022-10-07T05:29:59.076Z,10.02
2022-10-07T05:30:59.105Z,9.96
2022-10-07T05:32:03.897Z,9.93
2022-10-07T05:33:00.040Z,10.11
2022-10-07T05:33:59.038Z,9.97
2022-10-07T05:34:59.026Z,9.99
2022-10-07T05:35:59.015Z,9.99
2022-10-07T05:36:58.994Z,10.07
2022-10-07T05:37:58.979Z,10.12
2022-10-07T05:38:58.988Z,9.94
2022-10-07T05:40:03.978Z,10.05
2022-10-07T05:40:58.945Z,9.97
2022-10-07T05:41:58.932Z,9.99
2022-10-07T05:42:58.923Z,9.94
2022-10-07T05:43:58.928Z,9.87
2022-10-07T05:44:58.899Z,9.90
2022-10-07T05:45:58.990Z,9.94
2022-10-07T05:46:58.896Z,9.94
2022-10-07T05:47:58.866Z,9.87
2022-10-07T05:48:58.888Z,9.90
2022-10-07T05:49:58.846Z,9.90
2022-10-07T05:51:03.857Z,9.89
2022-10-07T05:51:58.816Z,9.79
2022-10-07T05:52:58.871Z,9.93
2022-10-07T05:53:58.815Z,9.87
2022-10-07T05:54:58.793Z,9.94
2022-10-07T05:55:58.779Z,9.93
2022-10-07T05:56:58.764Z,9.97
2022-10-07T05:57:58.750Z,9.93
2022-10-07T05:58:58.762Z,9.97
2022-10-07T05:59:58.727Z,10.02
2022-10-07T06:01:03.698Z,10.01
2022-10-07T06:02:04.888Z,9.97
2022-10-07T06:02:58.851Z,10.08
2022-10-07T06:03:58.739Z,10.07
2022-10-07T06:04:58.884Z,10.11
2022-10-07T06:05:59.101Z,10.29
2022-10-07T06:06:58.827Z,10.14
2022-10-07T06:07:58.673Z,10.23
2022-10-07T06:08:58.631Z,10.20
2022-10-07T06:09:58.658Z,10.26
2022-10-07T06:10:58.603Z,10.30
2022-10-07T06:11:58.602Z,10.30
2022-10-07T06:13:03.612Z,10.15
2022-10-07T06:13:58.568Z,10.15
2022-10-07T06:14:58.595Z,10.12
2022-10-07T06:15:58.546Z,10.12
2022-10-07T06:16:58.605Z,10.11
2022-10-07T06:17:58.574Z,10.14
2022-10-07T06:18:58.550Z,10.05
2022-10-07T06:19:58.699Z,10.04
2022-10-07T06:20:58.489Z,10.07
2022-10-07T06:21:58.498Z,9.93
2022-10-07T06:22:58.493Z,9.97
2022-10-07T06:24:03.487Z,10.01
2022-10-07T06:24:58.468Z,9.96
2022-10-07T06:25:58.433Z,10.09
2022-10-07T06:26:58.420Z,9.99
2022-10-07T06:27:59.007Z,9.89
2022-10-07T06:28:58.400Z,9.94
2022-10-07T06:29:58.423Z,9.96
2022-10-07T06:30:58.509Z,9.90
2022-10-07T06:31:58.376Z,9.86
2022-10-07T06:32:58.359Z,9.97
2022-10-07T06:33:58.377Z,9.96
2022-10-07T06:35:03.372Z,10.07
2022-10-07T06:36:03.592Z,10.08
2022-10-07T06:36:59.340Z,10.09
2022-10-07T06:37:58.305Z,10.15
2022-10-07T06:38:58.290Z,10.08
2022-10-07T06:39:59.692Z,10.05
2022-10-07T06:40:58.270Z,10.01
2022-10-07T06:41:58.250Z,10.07
2022-10-07T06:42:58.241Z,10.05
2022-10-07T06:43:58.229Z,10.15
2022-10-07T06:44:58.229Z,10.11
2022-10-07T06:46:03.349Z,10.12
2022-10-07T06:46:58.198Z,10.17
2022-10-07T06:47:58.389Z,10.11
2022-10-07T06:48:58.174Z,10.20
2022-10-07T06:49:58.193Z,10.15
2022-10-07T06:50:58.155Z,10.11
2022-10-07T06:51:58.139Z,10.08
2022-10-07T06:52:58.133Z,10.14
2022-10-07T06:53:58.134Z,10.14
2022-10-07T06:54:58.128Z,10.25
2022-10-07T06:55:58.094Z,10.36
2022-10-07T06:57:15.426Z,10.38
2022-10-07T06:57:59.334Z,10.38
2022-10-07T06:58:58.070Z,10.45
2022-10-07T06:59:58.062Z,10.55
2022-10-07T07:00:58.086Z,10.55
2022-10-07T07:01:58.091Z,10.59
2022-10-07T07:02:58.042Z,10.67
2022-10-07T07:03:58.002Z,10.60
2022-10-07T07:04:58.170Z,10.78
2022-10-07T07:05:58.049Z,10.85
2022-10-07T07:06:57.968Z,10.84
2022-10-07T07:08:02.979Z,10.71
2022-10-07T07:08:57.952Z,10.66
2022-10-07T07:09:57.931Z,10.63
2022-10-07T07:10:58.964Z,10.73
2022-10-07T07:11:58.232Z,10.67
2022-10-07T07:12:57.977Z,10.56
2022-10-07T07:13:57.891Z,10.64
2022-10-07T07:14:57.881Z,10.71
2022-10-07T07:15:57.994Z,10.78
2022-10-07T07:16:57.914Z,10.74
2022-10-07T07:17:57.841Z,10.68
2022-10-07T07:19:02.854Z,10.67
2022-10-07T07:19:57.816Z,10.73
2022-10-07T07:20:57.828Z,10.71
2022-10-07T07:21:57.811Z,10.78
2022-10-07T07:22:57.783Z,10.79
2022-10-07T07:23:57.790Z,10.81
2022-10-07T07:24:57.763Z,10.94
2022-10-07T07:25:57.772Z,11.00
2022-10-07T07:26:57.738Z,10.99
2022-10-07T07:27:58.209Z,10.99
2022-10-07T07:28:57.717Z,10.94
2022-10-07T07:30:02.724Z,10.97
2022-10-07T07:30:57.737Z,10.91
2022-10-07T07:31:57.679Z,10.96
2022-10-07T07:32:57.683Z,10.97
2022-10-07T07:33:57.656Z,10.97
2022-10-07T07:34:57.648Z,10.88
2022-10-07T07:35:57.648Z,10.85
2022-10-07T07:36:57.633Z,10.84
2022-10-07T07:37:57.642Z,10.84
2022-10-07T07:38:57.601Z,10.86
2022-10-07T07:39:57.593Z,10.89
2022-10-07T07:41:02.611Z,10.88
2022-10-07T07:41:57.565Z,10.91
2022-10-07T07:42:57.558Z,10.99
2022-10-07T07:43:57.546Z,10.97
2022-10-07T07:44:58.522Z,11.07
2022-10-07T07:45:57.547Z,11.14
2022-10-07T07:46:57.516Z,11.17
2022-10-07T07:47:57.512Z,11.27
2022-10-07T07:48:57.491Z,11.32
2022-10-07T07:49:57.474Z,11.36
2022-10-07T07:50:57.483Z,11.29
2022-10-07T07:52:02.475Z,11.29
2022-10-07T07:52:57.778Z,11.27
2022-10-07T07:53:57.460Z,11.24
2022-10-07T07:54:57.437Z,11.33
2022-10-07T07:55:57.446Z,11.28
2022-10-07T07:56:57.397Z,11.32
2022-10-07T07:57:57.385Z,11.37
2022-10-07T07:58:57.379Z,11.40
2022-10-07T07:59:57.372Z,11.47
2022-10-07T08:00:57.396Z,11.55
2022-10-07T08:01:57.354Z,11.57
2022-10-07T08:03:02.352Z,11.76
2022-10-07T08:03:57.341Z,11.83
2022-10-07T08:04:57.314Z,11.99
2022-10-07T08:05:57.335Z,12.13
2022-10-07T08:06:57.293Z,12.20
2022-10-07T08:07:57.272Z,12.23
2022-10-07T08:08:57.265Z,12.50
2022-10-07T08:09:57.269Z,12.56
2022-10-07T08:10:57.240Z,12.59
2022-10-07T08:11:57.239Z,12.62
2022-10-07T08:12:57.235Z,12.65
2022-10-07T08:14:02.224Z,12.59
2022-10-07T08:14:57.205Z,12.67
2022-10-07T08:15:57.253Z,12.72
2022-10-07T08:16:57.187Z,12.77
2022-10-07T08:17:57.160Z,12.90
2022-10-07T08:18:57.147Z,13.14
2022-10-07T08:19:57.134Z,13.23
2022-10-07T08:20:57.126Z,13.51
2022-10-07T08:21:57.128Z,13.59
2022-10-07T08:22:59.078Z,13.59
2022-10-07T08:23:57.092Z,13.55
2022-10-07T08:25:02.169Z,13.51
2022-10-07T08:25:57.069Z,13.38
2022-10-07T08:26:57.077Z,13.20
2022-10-07T08:27:57.064Z,13.08
2022-10-07T08:28:57.045Z,13.23
2022-10-07T08:29:57.023Z,13.36
2022-10-07T08:30:57.065Z,13.52
2022-10-07T08:31:57.025Z,13.70
2022-10-07T08:33:01.188Z,13.84
2022-10-07T08:33:56.976Z,13.82
2022-10-07T08:34:56.971Z,13.89
2022-10-07T08:36:01.979Z,13.87
2022-10-07T08:36:56.959Z,13.69
2022-10-07T08:37:56.931Z,13.49
2022-10-07T08:38:56.928Z,13.32
2022-10-07T08:39:56.909Z,13.29
2022-10-07T08:40:56.919Z,13.08
2022-10-07T08:41:56.899Z,12.85
2022-10-07T08:42:56.893Z,12.92
2022-10-07T08:44:00.562Z,13.00
2022-10-07T08:44:56.855Z,13.04
2022-10-07T08:45:56.950Z,13.15
2022-10-07T08:47:01.880Z,13.25
2022-10-07T08:47:56.821Z,13.33
2022-10-07T08:48:56.813Z,13.33
2022-10-07T08:49:56.855Z,13.32
2022-10-07T08:50:56.793Z,13.30
2022-10-07T08:51:56.788Z,13.36
2022-10-07T08:52:56.767Z,13.38
2022-10-07T08:53:56.756Z,13.36
2022-10-07T08:54:56.747Z,13.41
2022-10-07T08:55:56.735Z,13.30
2022-10-07T08:56:56.918Z,13.30
2022-10-07T08:58:01.731Z,13.30
2022-10-07T08:58:56.721Z,13.32
2022-10-07T08:59:56.746Z,13.33
2022-10-07T09:00:56.679Z,13.17
2022-10-07T09:01:56.676Z,13.19
2022-10-07T09:02:56.688Z,13.10
2022-10-07T09:03:56.648Z,13.32
2022-10-07T09:04:56.633Z,13.36
2022-10-07T09:05:56.619Z,13.41
2022-10-07T09:06:56.627Z,13.42
2022-10-07T09:07:56.595Z,13.45
2022-10-07T09:09:01.609Z,13.51
2022-10-07T09:09:56.575Z,13.52
2022-10-07T09:10:56.561Z,13.51
2022-10-07T09:11:56.575Z,13.36
2022-10-07T09:12:56.603Z,13.49
2022-10-07T09:13:56.528Z,13.60
2022-10-07T09:14:56.518Z,13.69
2022-10-07T09:15:56.543Z,13.78
2022-10-07T09:16:56.492Z,13.73
2022-10-07T09:17:56.491Z,13.87
2022-10-07T09:18:56.468Z,13.95
2022-10-07T09:20:01.483Z,13.99
2022-10-07T09:20:56.447Z,14.04
2022-10-07T09:21:56.433Z,13.96
2022-10-07T09:22:56.434Z,13.84
2022-10-07T09:23:56.412Z,13.81
2022-10-07T09:24:56.611Z,13.97
2022-10-07T09:25:56.393Z,13.77
2022-10-07T09:26:56.374Z,13.96
2022-10-07T09:27:56.384Z,13.95
2022-10-07T09:28:56.379Z,13.95
2022-10-07T09:29:56.344Z,13.95
2022-10-07T09:31:01.412Z,14.06
2022-10-07T09:31:56.322Z,14.09
2022-10-07T09:32:56.314Z,14.17
2022-10-07T09:33:56.295Z,14.18
2022-10-07T09:34:56.284Z,14.12
2022-10-07T09:35:57.675Z,14.12
2022-10-07T09:36:56.264Z,14.06
2022-10-07T09:37:56.264Z,14.15
2022-10-07T09:38:56.244Z,14.18
2022-10-07T09:39:56.226Z,14.29
2022-10-07T09:40:56.215Z,14.33
2022-10-07T09:42:01.226Z,14.32
2022-10-07T09:42:56.202Z,14.32
2022-10-07T09:43:56.181Z,14.40
2022-10-07T09:44:56.189Z,14.39
2022-10-07T09:45:56.287Z,14.47
2022-10-07T09:46:56.163Z,14.54
2022-10-07T09:47:56.148Z,14.52
2022-10-07T09:48:56.136Z,14.54
2022-10-07T09:49:56.117Z,14.55
2022-10-07T09:50:56.103Z,14.61
2022-10-07T09:51:56.092Z,14.65
2022-10-07T09:53:01.170Z,14.69
2022-10-07T09:53:56.071Z,14.68
2022-10-07T09:54:56.054Z,14.68
2022-10-07T09:55:56.060Z,14.70
2022-10-07T09:56:56.032Z,14.80
2022-10-07T09:57:56.034Z,14.73
2022-10-07T09:58:56.009Z,14.69
2022-10-07T09:59:56.042Z,14.77
2022-10-07T10:00:56.034Z,14.68
2022-10-07T10:01:56.058Z,14.73
2022-10-07T10:02:56.026Z,14.72
2022-10-07T10:04:00.977Z,14.72
2022-10-07T10:04:55.941Z,14.89
2022-10-07T10:05:55.931Z,14.98
2022-10-07T10:06:55.921Z,15.01
2022-10-07T10:07:55.931Z,15.02
2022-10-07T10:08:55.906Z,14.89
2022-10-07T10:09:55.895Z,14.92
2022-10-07T10:10:55.874Z,14.84
2022-10-07T10:11:55.926Z,14.75
2022-10-07T10:12:55.864Z,14.83
2022-10-07T10:13:55.843Z,14.86
2022-10-07T10:15:00.860Z,14.73
2022-10-07T10:15:55.873Z,14.86
2022-10-07T10:16:55.825Z,14.83
2022-10-07T10:17:55.810Z,14.81
2022-10-07T10:18:55.783Z,14.84
2022-10-07T10:19:55.775Z,14.91
2022-10-07T10:20:55.851Z,14.94
2022-10-07T10:21:55.757Z,14.99
2022-10-07T10:22:55.750Z,14.99
2022-10-07T10:23:55.729Z,14.95
2022-10-07T10:24:55.717Z,15.02
2022-10-07T10:26:00.726Z,15.07
2022-10-07T10:26:55.693Z,15.28
2022-10-07T10:27:55.693Z,15.28
2022-10-07T10:28:55.672Z,15.27
2022-10-07T10:29:55.663Z,15.23
2022-10-07T10:30:55.683Z,15.35
2022-10-07T10:31:55.648Z,15.38
2022-10-07T10:32:55.669Z,15.54
2022-10-07T10:33:55.615Z,15.59
2022-10-07T10:34:55.602Z,15.57
2022-10-07T10:35:55.606Z,15.65
2022-10-07T10:37:00.619Z,15.67
2022-10-07T10:37:55.619Z,15.62
2022-10-07T10:38:55.557Z,15.60
2022-10-07T10:39:55.549Z,15.71
2022-10-07T10:40:55.559Z,15.72
2022-10-07T10:41:55.531Z,15.76
2022-10-07T10:42:55.581Z,15.82
2022-10-07T10:43:55.499Z,15.86
2022-10-07T10:44:55.486Z,16.04
2022-10-07T10:45:55.479Z,16.02
2022-10-07T10:46:55.527Z,15.94
2022-10-07T10:48:00.509Z,15.82
2022-10-07T10:48:55.442Z,15.75
2022-10-07T10:49:55.437Z,15.71
2022-10-07T10:50:55.423Z,15.71
2022-10-07T10:51:55.416Z,15.67
2022-10-07T10:52:55.398Z,15.67
2022-10-07T10:53:55.411Z,15.62
2022-10-07T10:54:55.373Z,15.64
2022-10-07T10:55:55.365Z,15.67
2022-10-07T10:56:55.350Z,15.76
2022-10-07T10:58:00.006Z,15.92
2022-10-07T10:59:01.360Z,16.00
2022-10-07T10:59:55.317Z,16.02
2022-10-07T11:00:59.541Z,16.08
2022-10-07T11:01:55.351Z,16.21
2022-10-07T11:02:55.365Z,16.28
2022-10-07T11:03:55.343Z,16.33
2022-10-07T11:04:55.259Z,16.39
2022-10-07T11:05:55.249Z,16.50
2022-10-07T11:06:55.237Z,16.56
2022-10-07T11:07:55.231Z,16.58
2022-10-07T11:08:55.246Z,16.71
2022-10-07T11:10:00.324Z,16.79
2022-10-07T11:10:55.203Z,16.76
2022-10-07T11:11:55.185Z,16.75
2022-10-07T11:12:55.170Z,16.68
2022-10-07T11:13:55.178Z,16.79
2022-10-07T11:14:57.735Z,16.82
2022-10-07T11:15:55.161Z,16.94
2022-10-07T11:16:55.134Z,16.91
2022-10-07T11:17:55.178Z,16.97
2022-10-07T11:18:55.554Z,16.97
2022-10-07T11:19:55.121Z,17.03
2022-10-07T11:21:00.106Z,17.15
2022-10-07T11:21:55.069Z,17.12
2022-10-07T11:22:55.056Z,16.94
2022-10-07T11:23:55.058Z,16.82
2022-10-07T11:24:55.036Z,16.85
2022-10-07T11:25:55.072Z,17.01
2022-10-07T11:26:55.022Z,17.40
2022-10-07T11:27:55.012Z,17.74
2022-10-07T11:28:55.012Z,17.71
2022-10-07T11:29:54.988Z,17.86
2022-10-07T11:30:55.028Z,17.72
2022-10-07T11:31:59.992Z,17.75
2022-10-07T11:32:54.959Z,17.71
2022-10-07T11:33:54.950Z,17.58
2022-10-07T11:34:54.981Z,17.58
2022-10-07T11:35:54.956Z,17.54
2022-10-07T11:36:54.901Z,17.54
2022-10-07T11:37:54.905Z,17.44
2022-10-07T11:38:54.893Z,17.36
2022-10-07T11:39:54.878Z,17.36
2022-10-07T11:40:54.853Z,17.33
2022-10-07T11:41:54.847Z,17.34
2022-10-07T11:42:59.854Z,17.26
2022-10-07T11:43:54.838Z,17.18
2022-10-07T11:44:54.810Z,17.14
2022-10-07T11:45:54.802Z,17.12
2022-10-07T11:46:54.897Z,17.14
2022-10-07T11:47:54.787Z,17.16
2022-10-07T11:48:54.774Z,17.25
2022-10-07T11:49:54.752Z,17.28
2022-10-07T11:50:54.739Z,17.22
2022-10-07T11:51:54.799Z,17.30
2022-10-07T11:52:54.748Z,17.33
2022-10-07T11:53:59.739Z,17.33
2022-10-07T11:54:54.694Z,17.44
2022-10-07T11:55:55.343Z,17.51
2022-10-07T11:56:54.671Z,17.51
2022-10-07T11:57:54.665Z,17.52
2022-10-07T11:58:54.660Z,17.51
2022-10-07T11:59:54.639Z,17.56
2022-10-07T12:00:54.624Z,17.66
2022-10-07T12:01:54.670Z,17.62
2022-10-07T12:02:54.639Z,17.59
2022-10-07T12:03:54.633Z,17.59
2022-10-07T12:04:59.633Z,17.55
2022-10-07T12:05:54.569Z,17.52
2022-10-07T12:06:54.581Z,17.52
2022-10-07T12:07:54.570Z,17.31
2022-10-07T12:08:54.552Z,17.40
2022-10-07T12:09:54.536Z,17.44
2022-10-07T12:10:54.562Z,17.59
2022-10-07T12:11:54.506Z,17.70
2022-10-07T12:12:54.488Z,17.99
2022-10-07T12:13:54.476Z,18.39
2022-10-07T12:14:54.477Z,18.57
2022-10-07T12:15:59.542Z,18.60
2022-10-07T12:16:54.445Z,18.50
2022-10-07T12:17:54.432Z,18.42
2022-10-07T12:18:54.420Z,18.21
2022-10-07T12:19:54.440Z,18.05
2022-10-07T12:20:54.429Z,17.89
2022-10-07T12:21:54.386Z,17.86
2022-10-07T12:22:54.382Z,17.77
2022-10-07T12:23:54.399Z,17.78
2022-10-07T12:24:54.367Z,17.79
2022-10-07T12:25:54.348Z,17.86
2022-10-07T12:26:59.355Z,17.90
2022-10-07T12:27:54.318Z,18.03
2022-10-07T12:28:54.304Z,18.07
2022-10-07T12:29:54.303Z,18.12
2022-10-07T12:30:54.283Z,18.11
2022-10-07T12:31:54.315Z,18.23
2022-10-07T12:32:54.256Z,18.35
2022-10-07T12:33:54.252Z,18.36
2022-10-07T12:34:54.246Z,18.29
2022-10-07T12:35:54.944Z,18.17
2022-10-07T12:36:54.224Z,18.10
2022-10-07T12:37:59.235Z,18.18
2022-10-07T12:38:54.235Z,18.26
2022-10-07T12:39:54.345Z,18.32
2022-10-07T12:40:54.172Z,18.37
2022-10-07T12:41:54.156Z,18.41
2022-10-07T12:42:54.151Z,18.36
2022-10-07T12:43:54.146Z,18.44
2022-10-07T12:44:54.134Z,18.44
2022-10-07T12:45:54.155Z,18.45
2022-10-07T12:46:54.098Z,18.50
2022-10-07T12:47:54.100Z,18.60
2022-10-07T12:48:59.110Z,18.55
2022-10-07T12:49:54.089Z,18.52
2022-10-07T12:50:54.062Z,18.45
2022-10-07T12:51:54.055Z,18.37
2022-10-07T12:52:54.029Z,18.41
2022-10-07T12:53:54.021Z,18.47